Time;durP1;ratioP1;P1;durP2;ratioP2;P2;SDS_P1;SDS_P2;PMS_P1;PMS_P2;Temp;Humidity;BMP_temperature;BMP_pressure;BME280_temperature;BME280_humidity;BME280_pressure;Samples;Min_cycle;Max_cycle;Signal;HPM_P1;HPM_P2
2023/07/19 00:02:04;;;;;;;7.32;4.50;;;19.10;99.90;;;;;;6234841;28;20046;-81
2023/07/19 00:05:08;;;;;;;6.65;5.47;;;19.00;99.90;;;;;;6236016;28;20056;-81
2023/07/19 00:08:09;;;;;;;8.43;5.10;;;19.00;99.90;;;;;;6245313;28;20048;-81
2023/07/19 00:11:12;;;;;;;7.28;6.05;;;18.90;99.90;;;;;;6261406;28;20076;-81
2023/07/19 00:14:14;;;;;;;8.18;4.35;;;18.90;99.90;;;;;;6259986;28;20050;-80
2023/07/19 00:17:16;;;;;;;7.72;4.43;;;18.90;99.90;;;;;;6260709;28;20060;-79
2023/07/19 00:20:18;;;;;;;7.50;5.45;;;18.80;99.90;;;;;;6259990;28;20041;-79
2023/07/19 00:23:20;;;;;;;5.90;5.22;;;18.90;99.90;;;;;;6259604;28;20435;-79
2023/07/19 00:26:23;;;;;;;6.45;5.53;;;18.90;99.90;;;;;;6259890;28;20515;-81
2023/07/19 00:29:25;;;;;;;7.47;5.57;;;18.90;99.90;;;;;;6260050;28;20041;-80
2023/07/19 00:32:27;;;;;;;5.90;5.28;;;18.90;99.90;;;;;;6258748;28;20049;-81
2023/07/19 00:35:28;;;;;;;10.13;6.28;;;18.90;99.90;;;;;;6259923;28;20049;-80
2023/07/19 00:38:30;;;;;;;8.98;5.95;;;18.90;99.90;;;;;;6258482;28;20050;-81
2023/07/19 00:41:33;;;;;;;6.50;5.90;;;18.70;99.90;;;;;;6257822;28;20588;-80
2023/07/19 00:44:35;;;;;;;6.35;5.75;;;18.80;99.90;;;;;;6258443;28;20531;-79
2023/07/19 00:47:38;;;;;;;7.90;5.30;;;18.80;99.90;;;;;;6259656;28;20049;-80
2023/07/19 00:50:39;;;;;;;6.65;6.03;;;18.70;99.90;;;;;;6259783;28;20045;-80
2023/07/19 00:53:41;;;;;;;6.82;5.18;;;18.80;99.90;;;;;;6259217;28;20049;-80
2023/07/19 00:56:46;;;;;;;6.88;5.63;;;18.70;99.90;;;;;;6259634;28;20051;-82
2023/07/19 00:59:48;;;;;;;6.43;4.82;;;18.70;99.90;;;;;;6258646;28;20060;-82
2023/07/19 01:02:50;;;;;;;6.97;4.90;;;18.70;99.90;;;;;;6260454;28;20070;-81
2023/07/19 01:05:52;;;;;;;9.73;6.00;;;18.70;99.90;;;;;;6259629;28;20045;-80
2023/07/19 01:08:54;;;;;;;5.55;4.60;;;18.70;99.90;;;;;;6260201;28;20042;-79
2023/07/19 01:11:57;;;;;;;7.75;5.85;;;18.70;99.90;;;;;;6259327;28;20072;-82
2023/07/19 01:14:58;;;;;;;8.68;5.28;;;18.70;99.90;;;;;;6259729;28;20059;-80
2023/07/19 01:18:00;;;;;;;5.97;4.95;;;18.80;99.90;;;;;;6259160;28;20045;-79
2023/07/19 01:21:02;;;;;;;5.80;5.20;;;18.80;99.90;;;;;;6259457;28;20058;-80
2023/07/19 01:24:05;;;;;;;7.32;5.85;;;18.80;99.90;;;;;;6259549;28;20063;-81
2023/07/19 01:27:07;;;;;;;8.13;6.25;;;18.80;99.90;;;;;;6260057;28;20057;-79
2023/07/19 01:30:10;;;;;;;9.95;5.63;;;18.80;99.90;;;;;;6258063;28;20046;-81
2023/07/19 01:33:11;;;;;;;7.93;6.28;;;18.80;99.90;;;;;;6257773;28;20506;-82
2023/07/19 01:36:13;;;;;;;5.85;5.22;;;18.80;99.90;;;;;;6258919;28;20048;-79
2023/07/19 01:39:16;;;;;;;12.55;6.00;;;18.80;99.90;;;;;;6259510;28;20212;-80
2023/07/19 01:42:17;;;;;;;11.15;5.47;;;18.80;99.90;;;;;;6257383;28;20393;-80
2023/07/19 01:45:19;;;;;;;9.20;6.57;;;18.90;99.90;;;;;;6252658;28;20041;-79
2023/07/19 01:48:21;;;;;;;9.27;6.57;;;18.90;99.90;;;;;;6257335;28;20049;-81
2023/07/19 01:51:23;;;;;;;9.27;6.50;;;18.90;99.90;;;;;;6258822;28;20049;-81
2023/07/19 01:54:26;;;;;;;9.32;6.30;;;18.90;99.90;;;;;;6258457;28;20049;-81
2023/07/19 01:57:27;;;;;;;6.75;5.53;;;18.90;99.90;;;;;;6258017;28;20049;-81
2023/07/19 02:00:29;;;;;;;8.57;6.30;;;18.80;99.90;;;;;;6258001;28;20053;-80
2023/07/19 02:03:31;;;;;;;7.72;4.68;;;18.70;99.90;;;;;;6260966;28;20099;-80
2023/07/19 02:06:32;;;;;;;10.45;7.20;;;18.70;99.90;;;;;;6263374;28;20068;-79
2023/07/19 02:09:35;;;;;;;6.90;6.15;;;18.60;99.90;;;;;;6263490;28;20046;-80
2023/07/19 02:12:37;;;;;;;11.13;6.03;;;18.60;99.90;;;;;;6263203;28;20463;-81
2023/07/19 02:15:39;;;;;;;10.63;7.38;;;18.50;99.90;;;;;;6263435;28;20056;-80
2023/07/19 02:18:40;;;;;;;11.52;7.28;;;18.40;99.90;;;;;;6264142;28;20060;-81
2023/07/19 02:21:42;;;;;;;6.85;5.93;;;18.40;99.90;;;;;;6262965;28;20056;-81
2023/07/19 02:24:45;;;;;;;9.10;7.40;;;18.40;99.90;;;;;;6263508;28;20053;-82
2023/07/19 02:27:47;;;;;;;6.68;5.88;;;18.30;99.90;;;;;;6262958;28;20084;-80
2023/07/19 02:30:49;;;;;;;9.40;7.70;;;18.30;99.90;;;;;;6262529;28;20041;-82
2023/07/19 02:33:50;;;;;;;7.68;6.13;;;18.20;99.90;;;;;;6262070;28;20049;-80
2023/07/19 02:36:52;;;;;;;8.38;6.05;;;18.10;99.90;;;;;;6263960;28;20279;-79
2023/07/19 02:39:55;;;;;;;8.27;6.78;;;18.00;99.90;;;;;;6263233;28;20501;-80
2023/07/19 02:42:56;;;;;;;9.27;7.03;;;18.00;99.90;;;;;;6264683;28;20049;-79
2023/07/19 02:45:58;;;;;;;11.57;6.40;;;17.90;99.90;;;;;;6262104;28;20056;-81
2023/07/19 02:49:00;;;;;;;6.55;5.95;;;17.80;99.90;;;;;;6263308;28;20055;-81
2023/07/19 02:52:01;;;;;;;7.18;6.07;;;17.80;99.90;;;;;;6263608;28;20059;-82
2023/07/19 02:55:05;;;;;;;11.55;6.15;;;17.80;99.90;;;;;;6264123;28;20045;-82
2023/07/19 02:58:07;;;;;;;7.07;6.38;;;17.80;99.90;;;;;;6263069;28;20054;-80
2023/07/19 03:01:09;;;;;;;10.75;6.18;;;17.80;99.90;;;;;;6263019;28;20045;-79
2023/07/19 03:04:12;;;;;;;7.85;5.82;;;17.80;99.90;;;;;;6260542;28;20052;-80
2023/07/19 03:07:14;;;;;;;7.15;6.03;;;17.90;99.90;;;;;;6262884;28;20053;-81
2023/07/19 03:10:17;;;;;;;8.85;6.20;;;17.80;99.90;;;;;;6261872;28;20052;-81
2023/07/19 03:13:19;;;;;;;10.82;6.93;;;17.80;99.90;;;;;;6262742;28;20045;-79
2023/07/19 03:16:21;;;;;;;7.10;6.38;;;17.70;99.90;;;;;;6260070;28;20045;-82
2023/07/19 03:19:22;;;;;;;10.88;6.35;;;17.70;99.90;;;;;;6261899;28;20077;-81
2023/07/19 03:22:24;;;;;;;8.20;6.13;;;17.60;99.90;;;;;;6260452;28;20052;-81
2023/07/19 03:25:29;;;;;;;12.25;6.07;;;17.60;99.90;;;;;;6263815;28;20050;-80
2023/07/19 03:28:31;;;;;;;13.70;5.97;;;17.60;99.90;;;;;;6262053;28;20394;-80
2023/07/19 03:31:33;;;;;;;8.93;6.60;;;17.70;99.90;;;;;;6262117;28;20049;-79
2023/07/19 03:34:35;;;;;;;7.20;5.60;;;17.60;99.90;;;;;;6237312;28;20050;-81
2023/07/19 03:37:37;;;;;;;8.55;6.15;;;17.60;99.90;;;;;;6234700;28;20121;-78
2023/07/19 03:40:40;;;;;;;6.60;5.93;;;17.60;99.90;;;;;;6235060;28;20092;-79
2023/07/19 03:43:41;;;;;;;12.63;5.90;;;17.70;99.90;;;;;;6236820;28;20074;-80
2023/07/19 03:46:43;;;;;;;8.15;6.57;;;17.70;99.90;;;;;;6237636;28;20050;-80
2023/07/19 03:49:45;;;;;;;6.57;5.97;;;17.70;99.90;;;;;;6236475;28;20421;-80
2023/07/19 03:52:46;;;;;;;7.63;6.03;;;17.70;99.90;;;;;;6236672;28;20053;-79
2023/07/19 03:55:54;;;;;;;10.68;5.78;;;17.70;99.90;;;;;;6236689;28;20050;-81
2023/07/19 03:58:56;;;;;;;7.38;5.85;;;17.70;99.90;;;;;;6236443;28;20053;-80
2023/07/19 04:01:58;;;;;;;8.88;6.18;;;17.70;99.90;;;;;;6235872;28;20042;-79
2023/07/19 04:05:00;;;;;;;10.10;6.03;;;17.70;99.90;;;;;;6235795;28;20140;-80
2023/07/19 04:08:01;;;;;;;9.70;5.57;;;17.70;99.90;;;;;;6235065;28;20041;-80
2023/07/19 04:11:04;;;;;;;7.90;4.95;;;17.70;99.90;;;;;;6236407;28;20089;-82
2023/07/19 04:14:06;;;;;;;8.10;5.47;;;17.70;99.90;;;;;;6234835;28;20110;-79
2023/07/19 04:17:08;;;;;;;8.60;5.78;;;17.80;99.90;;;;;;6234965;28;20508;-79
2023/07/19 04:20:11;;;;;;;9.77;5.30;;;17.70;99.90;;;;;;6235833;28;20042;-78
2023/07/19 04:23:13;;;;;;;8.82;5.68;;;17.70;99.90;;;;;;6236386;28;20136;-79
2023/07/19 04:26:16;;;;;;;9.73;5.78;;;17.70;99.90;;;;;;6235084;28;20413;-79
2023/07/19 04:29:19;;;;;;;8.55;7.13;;;17.80;99.90;;;;;;6234382;28;20049;-79
2023/07/19 04:32:21;;;;;;;6.38;5.13;;;17.90;99.90;;;;;;6235146;28;20050;-81
2023/07/19 04:35:23;;;;;;;7.50;5.40;;;18.00;99.90;;;;;;6235205;28;20046;-79
2023/07/19 04:38:25;;;;;;;6.15;4.65;;;18.10;99.90;;;;;;6235678;28;20508;-79
2023/07/19 04:41:28;;;;;;;9.75;6.07;;;18.20;99.90;;;;;;6234921;28;20061;-81
2023/07/19 04:44:29;;;;;;;8.80;5.80;;;18.40;99.90;;;;;;6234184;28;20436;-80
2023/07/19 04:47:31;;;;;;;6.22;5.10;;;18.40;99.90;;;;;;6233294;28;20049;-79
2023/07/19 04:50:32;;;;;;;10.15;5.82;;;18.50;99.90;;;;;;6234666;28;20042;-80
2023/07/19 04:53:34;;;;;;;10.25;5.65;;;18.60;99.90;;;;;;6234084;28;20042;-79
2023/07/19 04:56:37;;;;;;;7.13;4.90;;;18.80;99.90;;;;;;6234893;28;20042;-81
2023/07/19 04:59:39;;;;;;;12.40;6.20;;;19.00;99.90;;;;;;6234555;28;20060;-79
2023/07/19 05:02:41;;;;;;;7.22;5.13;;;19.30;99.90;;;;;;6235586;28;20050;-80
2023/07/19 05:05:43;;;;;;;8.05;5.25;;;19.50;99.90;;;;;;6235958;28;20064;-80
2023/07/19 05:08:45;;;;;;;9.00;5.28;;;19.70;99.90;;;;;;6236096;28;20524;-81
2023/07/19 05:11:48;;;;;;;9.15;4.82;;;19.90;99.90;;;;;;6236517;28;20064;-80
2023/07/19 05:14:49;;;;;;;7.15;5.63;;;20.10;99.90;;;;;;6236827;28;20460;-81
2023/07/19 05:17:51;;;;;;;8.73;5.28;;;20.30;99.90;;;;;;6237214;28;20535;-81
2023/07/19 05:20:53;;;;;;;7.43;4.85;;;20.50;99.90;;;;;;6237118;28;20042;-79
2023/07/19 05:23:55;;;;;;;9.18;6.13;;;20.70;99.90;;;;;;6238234;28;20041;-79
2023/07/19 05:26:58;;;;;;;5.82;5.18;;;20.90;99.90;;;;;;6230572;28;20052;-79
2023/07/19 05:30:00;;;;;;;9.27;5.07;;;21.00;99.90;;;;;;6227097;28;20053;-80
2023/07/19 05:33:02;;;;;;;6.72;6.03;;;21.30;99.90;;;;;;6226682;28;20505;-80
2023/07/19 05:36:04;;;;;;;8.20;5.63;;;21.50;99.90;;;;;;6226417;28;20042;-81
2023/07/19 05:39:06;;;;;;;6.97;5.40;;;21.80;99.90;;;;;;6229381;28;20064;-80
2023/07/19 05:42:09;;;;;;;6.90;5.00;;;22.00;99.90;;;;;;6225382;28;20042;-81
2023/07/19 05:45:11;;;;;;;6.45;5.20;;;22.50;99.90;;;;;;6227368;28;20054;-81
2023/07/19 05:48:13;;;;;;;8.43;5.25;;;23.10;99.90;;;;;;6230021;28;20053;-80
2023/07/19 05:51:14;;;;;;;8.10;5.88;;;24.00;99.90;;;;;;6227087;28;20053;-81
2023/07/19 05:54:16;;;;;;;9.68;5.25;;;25.00;99.90;;;;;;6227339;28;20423;-80
2023/07/19 05:57:19;;;;;;;8.23;5.22;;;25.80;99.90;;;;;;6227290;28;20066;-81
2023/07/19 06:00:24;;;;;;;5.10;4.45;;;26.50;99.90;;;;;;6226656;28;20045;-80
2023/07/19 06:03:26;;;;;;;8.68;4.93;;;27.10;99.90;;;;;;6228238;28;20792;-81
2023/07/19 06:06:28;;;;;;;7.40;4.47;;;27.80;98.80;;;;;;6227920;28;20053;-82
2023/07/19 06:09:30;;;;;;;10.02;4.88;;;28.30;96.70;;;;;;6230776;28;20046;-82
2023/07/19 06:12:33;;;;;;;12.02;4.90;;;28.70;95.30;;;;;;6230932;28;20048;-82
2023/07/19 06:15:35;;;;;;;8.07;4.80;;;29.00;93.10;;;;;;6229716;28;20077;-80
2023/07/19 06:18:37;;;;;;;5.78;4.32;;;29.20;91.80;;;;;;6231617;28;20053;-80
2023/07/19 06:21:38;;;;;;;5.15;4.03;;;29.50;90.90;;;;;;6196804;28;20045;-81
2023/07/19 06:24:40;;;;;;;5.50;4.63;;;29.80;90.10;;;;;;6222153;28;20057;-79
2023/07/19 06:27:44;;;;;;;6.55;4.47;;;30.10;87.70;;;;;;6223836;28;20057;-83
2023/07/19 06:30:45;;;;;;;6.60;5.47;;;30.10;85.20;;;;;;6221090;28;20045;-80
2023/07/19 06:33:47;;;;;;;6.82;5.03;;;29.40;84.40;;;;;;6219199;28;20054;-81
2023/07/19 06:36:49;;;;;;;7.38;6.22;;;28.50;85.40;;;;;;6231095;28;20165;-80
2023/07/19 06:39:51;;;;;;;5.00;4.18;;;27.60;86.50;;;;;;6249575;28;20049;-80
2023/07/19 06:42:54;;;;;;;10.57;5.35;;;27.10;87.50;;;;;;6246316;28;20041;-79
2023/07/19 06:45:57;;;;;;;6.45;4.82;;;26.50;88.30;;;;;;6242528;28;20095;-81
2023/07/19 06:48:58;;;;;;;6.25;4.50;;;26.10;88.90;;;;;;6247795;28;20046;-82
2023/07/19 06:52:00;;;;;;;8.70;4.63;;;25.70;90.20;;;;;;6250379;28;20046;-81
2023/07/19 06:55:02;;;;;;;12.02;4.75;;;25.60;90.60;;;;;;6253126;28;20061;-83
2023/07/19 06:58:05;;;;;;;7.55;4.32;;;25.40;90.70;;;;;;6229010;28;20409;-83
2023/07/19 07:01:06;;;;;;;7.75;6.00;;;25.30;91.00;;;;;;6222740;28;20042;-79
2023/07/19 07:04:09;;;;;;;5.45;4.57;;;25.30;90.80;;;;;;6223313;28;20046;-83
2023/07/19 07:07:11;;;;;;;6.75;4.68;;;25.20;90.90;;;;;;6228073;28;20065;-82
2023/07/19 07:10:12;;;;;;;7.50;4.40;;;25.30;91.10;;;;;;6223098;28;20061;-82
2023/07/19 07:13:15;;;;;;;6.60;4.82;;;25.40;90.70;;;;;;6219643;28;20536;-82
2023/07/19 07:16:17;;;;;;;9.15;5.45;;;25.50;90.40;;;;;;6222226;28;20053;-83
2023/07/19 07:19:19;;;;;;;9.88;5.15;;;25.50;90.30;;;;;;6219228;28;20046;-81
2023/07/19 07:22:21;;;;;;;8.45;4.43;;;25.60;90.40;;;;;;6219911;28;20049;-82
2023/07/19 07:25:23;;;;;;;7.28;5.40;;;25.80;89.80;;;;;;6215827;28;20180;-81
2023/07/19 07:28:26;;;;;;;4.68;3.17;;;25.70;88.60;;;;;;6218966;28;20051;-81
2023/07/19 07:31:28;;;;;;;9.95;5.10;;;25.70;87.80;;;;;;6222999;28;20046;-79
2023/07/19 07:34:30;;;;;;;7.40;3.35;;;25.70;87.40;;;;;;6224329;28;20053;-81
2023/07/19 07:37:31;;;;;;;6.13;4.50;;;25.80;86.80;;;;;;6226761;28;20091;-81
2023/07/19 07:40:33;;;;;;;8.02;4.38;;;26.00;87.40;;;;;;6224437;28;20041;-81
2023/07/19 07:43:36;;;;;;;12.18;7.75;;;26.20;85.50;;;;;;6221981;28;20053;-80
2023/07/19 07:46:38;;;;;;;11.93;4.10;;;26.30;84.40;;;;;;6229589;28;20064;-81
2023/07/19 07:49:39;;;;;;;7.40;3.72;;;26.50;83.90;;;;;;6230950;28;20042;-82
2023/07/19 07:52:41;;;;;;;5.13;3.13;;;26.50;83.40;;;;;;6225216;28;20168;-81
2023/07/19 07:55:43;;;;;;;4.75;3.05;;;26.60;83.00;;;;;;6218840;28;20061;-81
2023/07/19 07:58:46;;;;;;;6.97;3.40;;;26.80;81.30;;;;;;6218949;28;20046;-81
2023/07/19 08:01:47;;;;;;;8.45;4.30;;;26.90;81.00;;;;;;6217825;28;20042;-80
2023/07/19 08:04:49;;;;;;;5.00;3.75;;;27.10;80.40;;;;;;6219548;28;20045;-82
2023/07/19 08:07:51;;;;;;;7.47;3.63;;;27.20;79.60;;;;;;6218160;28;20053;-81
2023/07/19 08:10:53;;;;;;;5.05;2.97;;;27.40;78.50;;;;;;6224566;28;20385;-81
2023/07/19 08:13:56;;;;;;;5.07;3.40;;;27.50;77.80;;;;;;6223532;28;20133;-79
2023/07/19 08:16:57;;;;;;;11.48;4.43;;;27.60;77.30;;;;;;6224696;28;20058;-80
2023/07/19 08:19:59;;;;;;;8.07;3.17;;;27.70;76.80;;;;;;6223158;28;20050;-77
2023/07/19 08:23:01;;;;;;;4.95;2.67;;;27.80;75.00;;;;;;6233534;28;20052;-80
2023/07/19 08:26:03;;;;;;;8.50;4.05;;;27.70;74.30;;;;;;6221881;28;20485;-81
2023/07/19 08:29:06;;;;;;;5.60;2.42;;;27.80;74.10;;;;;;6220996;28;20049;-82
2023/07/19 08:32:08;;;;;;;5.93;3.63;;;28.00;72.80;;;;;;6223646;28;20060;-80
2023/07/19 08:35:10;;;;;;;6.20;3.47;;;28.10;70.70;;;;;;6219092;28;20045;-81
2023/07/19 08:38:12;;;;;;;4.60;2.85;;;28.10;70.90;;;;;;6245306;28;20477;-82
2023/07/19 08:41:16;;;;;;;18.55;4.40;;;28.20;70.20;;;;;;6252911;28;20053;-85
2023/07/19 08:44:22;;;;;;;6.35;3.25;;;28.20;69.90;;;;;;6248307;28;20105;-83
2023/07/19 08:47:24;;;;;;;4.75;2.65;;;28.30;69.10;;;;;;6250744;28;20049;-83
2023/07/19 08:50:27;;;;;;;6.68;3.58;;;28.50;68.00;;;;;;6248727;28;20050;-83
2023/07/19 08:53:29;;;;;;;7.63;3.28;;;28.60;66.90;;;;;;6248335;28;20042;-82
2023/07/19 08:56:31;;;;;;;4.97;2.85;;;28.60;66.30;;;;;;6246262;28;20052;-84
2023/07/19 08:59:35;;;;;;;4.38;3.10;;;28.70;66.30;;;;;;6247149;28;20103;-82
2023/07/19 09:02:40;;;;;;;4.13;2.88;;;29.00;66.00;;;;;;6243622;28;20095;-84
2023/07/19 09:05:42;;;;;;;6.85;3.42;;;29.20;64.80;;;;;;6237890;28;20068;-82
2023/07/19 09:08:45;;;;;;;5.15;2.67;;;29.40;63.90;;;;;;6241759;28;20418;-84
2023/07/19 09:11:49;;;;;;;5.03;2.28;;;29.60;62.00;;;;;;6242756;28;20060;-83
2023/07/19 09:14:52;;;;;;;7.25;2.97;;;29.40;61.20;;;;;;6240494;28;20090;-83
2023/07/19 09:17:54;;;;;;;3.05;2.33;;;29.30;61.30;;;;;;6222021;28;20038;-83
2023/07/19 09:21:00;;;;;;;6.25;2.72;;;29.20;60.80;;;;;;6216195;28;20088;-83
2023/07/19 09:24:04;;;;;;;4.60;1.90;;;29.30;60.70;;;;;;6218443;28;20054;-83
2023/07/19 09:27:06;;;;;;;5.72;2.05;;;29.50;59.50;;;;;;6223480;28;20057;-85
2023/07/19 09:30:11;;;;;;;5.60;1.77;;;29.70;59.20;;;;;;6223499;28;20061;-83
2023/07/19 09:33:17;;;;;;;8.00;3.08;;;29.90;59.10;;;;;;6225351;28;20053;-83
2023/07/19 09:36:18;;;;;;;9.43;2.25;;;30.20;58.20;;;;;;6225527;28;20048;-84
2023/07/19 09:39:21;;;;;;;6.13;1.88;;;30.50;57.60;;;;;;6224264;28;20046;-82
2023/07/19 09:42:25;;;;;;;7.20;2.20;;;30.50;56.70;;;;;;6225758;28;20041;-83
2023/07/19 09:45:32;;;;;;;3.72;2.50;;;30.60;56.10;;;;;;6226500;28;20080;-83
2023/07/19 09:48:33;;;;;;;4.60;2.28;;;30.60;55.60;;;;;;6231782;28;20064;-80
2023/07/19 09:51:36;;;;;;;2.22;1.45;;;30.70;55.90;;;;;;6246303;28;20055;-82
2023/07/19 09:54:38;;;;;;;5.47;1.90;;;31.10;55.50;;;;;;6248644;28;20573;-83
2023/07/19 09:57:46;;;;;;;10.80;1.92;;;31.30;54.50;;;;;;6248554;28;20056;-84
2023/07/19 10:00:49;;;;;;;7.05;1.92;;;31.40;53.10;;;;;;6242660;28;20424;-83
2023/07/19 10:03:51;;;;;;;2.28;1.25;;;31.30;51.90;;;;;;6247332;28;20042;-84
2023/07/19 10:07:04;;;;;;;8.77;1.42;;;31.40;51.60;;;;;;6245277;28;20053;-83
2023/07/19 10:10:07;;;;;;;5.25;1.73;;;31.80;51.10;;;;;;6242951;28;20069;-83
2023/07/19 10:13:09;;;;;;;5.80;1.83;;;31.70;50.20;;;;;;6245397;28;20398;-81
2023/07/19 10:16:23;;;;;;;13.32;2.72;;;31.80;50.70;;;;;;6243778;28;20048;-83
2023/07/19 10:19:25;;;;;;;3.95;1.95;;;32.00;49.70;;;;;;6247371;28;20133;-83
2023/07/19 10:22:48;;;;;;;4.85;2.10;;;32.30;49.80;;;;;;6243697;28;20054;-83
2023/07/19 10:25:50;;;;;;;7.18;2.65;;;32.60;49.70;;;;;;6248693;28;20052;-84
2023/07/19 10:29:01;;;;;;;8.15;2.03;;;32.90;49.40;;;;;;6251276;28;20045;-84
2023/07/19 10:32:05;;;;;;;3.28;1.67;;;33.10;48.20;;;;;;6254076;28;20180;-84
2023/07/19 10:35:27;;;;;;;5.30;1.73;;;33.20;48.10;;;;;;6229198;28;20049;-83
2023/07/19 10:38:30;;;;;;;4.03;2.42;;;33.50;48.10;;;;;;6230774;28;20045;-83
2023/07/19 10:41:32;;;;;;;9.73;2.65;;;33.70;47.80;;;;;;6229713;28;20038;-84
2023/07/19 10:44:33;;;;;;;3.22;1.60;;;33.90;47.50;;;;;;6237913;28;20045;-82
2023/07/19 10:47:37;;;;;;;5.07;2.67;;;34.20;47.10;;;;;;6247243;28;20416;-82
2023/07/19 10:50:39;;;;;;;2.30;1.60;;;34.40;46.50;;;;;;6248005;28;20049;-82
2023/07/19 10:53:45;;;;;;;3.65;1.77;;;34.50;46.60;;;;;;6228460;28;20068;-80
2023/07/19 10:56:49;;;;;;;4.85;2.55;;;34.40;46.00;;;;;;6230609;28;20512;-79
2023/07/19 10:59:51;;;;;;;5.38;2.35;;;34.40;45.70;;;;;;6244623;28;20048;-82
2023/07/19 11:02:53;;;;;;;3.90;2.63;;;34.00;46.10;;;;;;6247245;28;20057;-82
2023/07/19 11:05:55;;;;;;;5.82;3.35;;;33.50;46.50;;;;;;6246516;28;20049;-83
2023/07/19 11:09:05;;;;;;;5.70;2.55;;;33.10;47.20;;;;;;6249489;28;20061;-82
2023/07/19 11:12:07;;;;;;;8.10;2.58;;;32.80;47.60;;;;;;6245065;28;20045;-82
2023/07/19 11:15:10;;;;;;;4.35;2.78;;;32.60;48.20;;;;;;6226369;28;20045;-83
2023/07/19 11:18:12;;;;;;;5.70;2.25;;;32.30;48.50;;;;;;6224476;28;20059;-83
2023/07/19 11:21:23;;;;;;;7.50;3.13;;;32.40;49.40;;;;;;6226157;28;20050;-83
2023/07/19 11:24:36;;;;;;;11.70;3.40;;;32.30;49.20;;;;;;6224151;28;20041;-82
2023/07/19 11:27:38;;;;;;;5.95;2.42;;;32.90;49.20;;;;;;6221612;28;20042;-83
2023/07/19 11:30:41;;;;;;;5.18;2.78;;;33.00;49.00;;;;;;6222843;28;20442;-83
2023/07/19 11:33:48;;;;;;;5.00;2.58;;;33.00;49.00;;;;;;6238675;28;20416;-83
2023/07/19 11:36:50;;;;;;;7.07;2.60;;;32.70;49.50;;;;;;6245560;28;20689;-83
2023/07/19 11:39:54;;;;;;;3.88;2.88;;;32.60;49.90;;;;;;6251490;28;20497;-82
2023/07/19 11:42:58;;;;;;;6.90;2.88;;;32.30;50.00;;;;;;6253532;28;20393;-82
2023/07/19 11:46:00;;;;;;;8.38;2.85;;;32.50;50.20;;;;;;6250761;28;20058;-83
2023/07/19 11:49:01;;;;;;;8.40;2.92;;;32.50;50.10;;;;;;6246707;28;20640;-81
2023/07/19 11:52:03;;;;;;;10.07;3.22;;;32.70;50.30;;;;;;6243108;28;20060;-81
2023/07/19 11:55:10;;;;;;;5.93;2.63;;;32.50;50.80;;;;;;6242964;28;20107;-82
2023/07/19 11:58:12;;;;;;;6.32;2.78;;;32.90;50.70;;;;;;6240174;28;20096;-81
2023/07/19 12:01:13;;;;;;;11.52;3.17;;;33.20;50.30;;;;;;6240813;28;20084;-81
2023/07/19 12:04:15;;;;;;;8.80;4.15;;;33.30;49.80;;;;;;6241733;28;20041;-82
2023/07/19 12:07:17;;;;;;;7.38;3.13;;;33.00;49.80;;;;;;6243069;28;20286;-81
2023/07/19 12:10:21;;;;;;;5.60;2.95;;;32.60;50.40;;;;;;6241382;28;20045;-80
2023/07/19 12:13:23;;;;;;;4.28;2.80;;;32.30;50.80;;;;;;6226257;28;20064;-81
2023/07/19 12:16:25;;;;;;;4.57;3.38;;;32.20;51.00;;;;;;6220155;28;20105;-82
2023/07/19 12:19:27;;;;;;;7.40;2.95;;;32.40;51.00;;;;;;6216321;28;20041;-81
2023/07/19 12:22:28;;;;;;;5.63;2.83;;;32.40;50.50;;;;;;6246906;28;20053;-81
2023/07/19 12:25:31;;;;;;;4.47;2.80;;;32.60;50.40;;;;;;6249081;28;20049;-82
2023/07/19 12:28:33;;;;;;;13.25;3.63;;;32.90;50.10;;;;;;6249914;28;20063;-81
2023/07/19 12:31:35;;;;;;;5.78;2.85;;;32.90;49.50;;;;;;6242002;28;20425;-82
2023/07/19 12:34:36;;;;;;;11.27;3.15;;;33.10;48.80;;;;;;6247970;28;20140;-78
2023/07/19 12:37:38;;;;;;;21.63;3.60;;;33.60;47.80;;;;;;6249522;28;20045;-83
2023/07/19 12:40:43;;;;;;;10.80;3.15;;;33.80;47.00;;;;;;6240519;28;20045;-81
2023/07/19 12:43:44;;;;;;;5.30;3.55;;;33.80;46.70;;;;;;6237752;28;20049;-81
2023/07/19 12:46:46;;;;;;;6.38;3.00;;;33.60;47.20;;;;;;6237179;28;20077;-81
2023/07/19 12:49:48;;;;;;;11.52;3.20;;;33.30;47.60;;;;;;6221399;28;20052;-83
2023/07/19 12:52:51;;;;;;;6.97;2.92;;;33.20;47.80;;;;;;6213223;28;20053;-80
2023/07/19 12:55:54;;;;;;;7.13;2.83;;;33.00;47.10;;;;;;6214686;28;20046;-82
2023/07/19 12:58:56;;;;;;;6.35;3.60;;;32.80;47.60;;;;;;6213710;28;20489;-83
2023/07/19 13:01:58;;;;;;;4.60;2.83;;;33.00;47.30;;;;;;6214190;28;20096;-82
2023/07/19 13:05:00;;;;;;;6.95;4.28;;;33.50;47.10;;;;;;6213904;28;20200;-82
2023/07/19 13:08:01;;;;;;;4.72;2.63;;;33.80;46.30;;;;;;6216951;28;20062;-83
2023/07/19 13:11:04;;;;;;;4.25;2.65;;;34.10;45.70;;;;;;6216702;28;20060;-83
2023/07/19 13:14:07;;;;;;;5.25;2.78;;;34.10;45.60;;;;;;6216038;28;20053;-82
2023/07/19 13:17:09;;;;;;;11.07;3.97;;;34.30;45.70;;;;;;6215198;28;20058;-82
2023/07/19 13:20:11;;;;;;;6.03;3.45;;;34.50;46.00;;;;;;6215793;28;20045;-81
2023/07/19 13:23:16;;;;;;;3.55;2.42;;;34.70;46.80;;;;;;6218211;28;20045;-82
2023/07/19 13:26:19;;;;;;;5.30;3.20;;;34.80;46.30;;;;;;6216119;28;20050;-82
2023/07/19 13:29:21;;;;;;;7.20;3.20;;;35.00;46.30;;;;;;6215450;28;20374;-82
2023/07/19 13:32:22;;;;;;;5.95;3.03;;;35.00;45.90;;;;;;6214717;28;20042;-81
2023/07/19 13:35:24;;;;;;;6.65;3.22;;;34.50;46.00;;;;;;6213945;28;20046;-82
2023/07/19 13:38:27;;;;;;;8.73;4.03;;;34.30;45.40;;;;;;6213212;28;20041;-81
2023/07/19 13:41:30;;;;;;;3.55;2.35;;;34.40;45.80;;;;;;6212187;28;20128;-83
2023/07/19 13:44:32;;;;;;;8.95;3.47;;;34.60;45.40;;;;;;6211982;28;20619;-82
2023/07/19 13:47:33;;;;;;;3.63;2.72;;;34.40;45.00;;;;;;6213832;28;20042;-82
2023/07/19 13:50:35;;;;;;;6.88;2.63;;;34.30;44.90;;;;;;6213554;28;20054;-81
2023/07/19 13:53:37;;;;;;;3.58;2.33;;;34.10;44.80;;;;;;6211356;28;20357;-80
2023/07/19 13:56:40;;;;;;;3.40;2.67;;;33.80;44.60;;;;;;6210722;28;20057;-79
2023/07/19 13:59:42;;;;;;;12.30;3.10;;;33.70;45.00;;;;;;6211111;28;20065;-82
2023/07/19 14:02:44;;;;;;;6.40;3.03;;;33.80;44.90;;;;;;6213023;28;20054;-82
2023/07/19 14:05:46;;;;;;;6.55;2.65;;;33.70;44.50;;;;;;6215778;28;20141;-83
2023/07/19 14:08:48;;;;;;;4.25;2.70;;;33.80;44.40;;;;;;6217827;28;20060;-81
2023/07/19 14:11:51;;;;;;;4.40;3.53;;;33.80;44.60;;;;;;6217788;28;20053;-82
2023/07/19 14:14:53;;;;;;;8.15;3.30;;;34.00;43.90;;;;;;6220245;28;20413;-81
2023/07/19 14:17:55;;;;;;;3.67;2.90;;;33.90;43.80;;;;;;6217705;28;20042;-82
2023/07/19 14:20:56;;;;;;;5.40;2.80;;;34.00;44.10;;;;;;6218356;28;20050;-82
2023/07/19 14:23:58;;;;;;;10.02;3.67;;;34.00;43.80;;;;;;6217308;28;20057;-84
2023/07/19 14:27:01;;;;;;;8.80;3.05;;;33.90;44.00;;;;;;6216141;28;20050;-81
2023/07/19 14:30:04;;;;;;;7.22;4.20;;;33.60;43.90;;;;;;6215971;28;20390;-82
2023/07/19 14:33:06;;;;;;;8.75;4.47;;;33.30;44.30;;;;;;6214174;28;20113;-82
2023/07/19 14:36:07;;;;;;;5.30;3.10;;;33.00;44.30;;;;;;6214544;28;20049;-82
2023/07/19 14:39:10;;;;;;;3.08;2.70;;;32.60;44.70;;;;;;6213080;28;20056;-81
2023/07/19 14:42:13;;;;;;;12.73;4.22;;;32.10;44.70;;;;;;6213543;28;20102;-81
2023/07/19 14:45:15;;;;;;;17.90;16.67;;;31.90;45.70;;;;;;6214930;28;20046;-82
2023/07/19 14:48:17;;;;;;;8.13;4.07;;;32.00;45.70;;;;;;6212624;28;20045;-83
2023/07/19 14:51:19;;;;;;;7.05;3.03;;;32.10;45.60;;;;;;6214793;28;20073;-80
2023/07/19 14:54:21;;;;;;;9.68;3.75;;;32.10;45.40;;;;;;6216067;28;20042;-80
2023/07/19 14:57:24;;;;;;;6.93;3.42;;;32.00;45.70;;;;;;6215382;28;20054;-81
2023/07/19 15:00:27;;;;;;;4.40;3.15;;;32.00;45.80;;;;;;6213445;28;20521;-82
2023/07/19 15:03:28;;;;;;;5.68;2.97;;;32.10;46.20;;;;;;6217360;28;20046;-82
2023/07/19 15:06:30;;;;;;;4.28;3.20;;;32.20;46.40;;;;;;6214573;28;20217;-82
2023/07/19 15:09:32;;;;;;;6.20;4.80;;;32.20;46.10;;;;;;6215351;28;20050;-83
2023/07/19 15:12:35;;;;;;;6.65;3.30;;;32.00;46.60;;;;;;6225061;28;20412;-83
2023/07/19 15:15:37;;;;;;;8.13;3.65;;;32.10;46.10;;;;;;6222939;28;20425;-82
2023/07/19 15:18:38;;;;;;;5.43;2.85;;;32.00;46.30;;;;;;6223474;28;20516;-82
2023/07/19 15:21:40;;;;;;;4.97;3.55;;;31.90;46.00;;;;;;6220932;28;20049;-81
2023/07/19 15:24:42;;;;;;;8.07;3.03;;;32.10;46.00;;;;;;6224375;28;20050;-82
2023/07/19 15:27:45;;;;;;;7.68;3.13;;;32.10;46.00;;;;;;6222289;28;20365;-83
2023/07/19 15:30:47;;;;;;;9.38;3.00;;;32.30;45.80;;;;;;6223565;28;20046;-80
2023/07/19 15:33:48;;;;;;;8.68;3.47;;;32.30;45.20;;;;;;6220287;28;20049;-80
2023/07/19 15:36:50;;;;;;;7.97;3.33;;;32.30;44.80;;;;;;6220394;28;20054;-80
2023/07/19 15:39:52;;;;;;;5.72;2.92;;;32.40;44.20;;;;;;6223306;28;20050;-80
2023/07/19 15:42:55;;;;;;;12.27;2.42;;;32.60;43.70;;;;;;6219528;28;20053;-79
2023/07/19 15:45:57;;;;;;;6.93;2.10;;;32.80;44.20;;;;;;6220744;28;20505;-80
2023/07/19 15:48:58;;;;;;;5.40;2.70;;;32.60;42.90;;;;;;6219464;28;20049;-80